createdAt,value
2022-10-18T00:02:24.520Z,6.90
2022-10-18T00:04:51.625Z,8.63
2022-10-18T00:07:18.638Z,8.88
2022-10-18T00:09:45.705Z,8.35
2022-10-18T00:12:12.769Z,8.65
2022-10-18T00:14:39.811Z,8.37
2022-10-18T00:17:06.903Z,9.95
2022-10-18T00:19:33.606Z,5.85
2022-10-18T00:22:00.679Z,7.20
2022-10-18T00:24:27.758Z,6.07
2022-10-18T00:26:54.830Z,8.65
2022-10-18T00:29:21.846Z,9.63
2022-10-18T00:31:48.876Z,9.73
2022-10-18T00:34:16.929Z,6.38
2022-10-18T00:36:44.776Z,8.77
2022-10-18T00:39:17.125Z,9.73
2022-10-18T00:41:44.603Z,7.73
2022-10-18T00:44:11.645Z,7.03
2022-10-18T00:46:40.089Z,6.72
2022-10-18T00:49:09.009Z,10.53
2022-10-18T00:51:39.073Z,9.23
2022-10-18T00:54:06.128Z,7.53
2022-10-18T00:56:34.498Z,6.93
2022-10-18T00:59:01.657Z,7.28
2022-10-18T01:01:28.741Z,9.43
2022-10-18T01:03:56.544Z,5.57
2022-10-18T01:06:23.638Z,7.47
2022-10-18T01:08:58.061Z,4.82
2022-10-18T01:11:44.992Z,6.72
2022-10-18T01:14:31.981Z,7.57
2022-10-18T01:17:02.052Z,9.18
2022-10-18T01:19:49.070Z,6.10
2022-10-18T01:22:36.026Z,7.10
2022-10-18T01:25:07.450Z,5.38
2022-10-18T01:27:34.508Z,5.20
2022-10-18T01:30:21.498Z,4.57
2022-10-18T01:32:50.666Z,6.55
2022-10-18T01:35:19.882Z,8.50
2022-10-18T01:37:48.207Z,9.20
2022-10-18T01:40:18.302Z,5.43
2022-10-18T01:42:47.019Z,7.70
2022-10-18T01:45:15.547Z,9.68
2022-10-18T01:47:44.987Z,8.80
2022-10-18T01:50:12.562Z,6.80
2022-10-18T01:52:55.051Z,7.22
2022-10-18T01:55:25.682Z,6.63
2022-10-18T01:58:12.682Z,6.72
2022-10-18T02:00:42.339Z,6.00
2022-10-18T02:03:12.670Z,5.85
2022-10-18T02:05:49.026Z,7.22
2022-10-18T02:08:35.180Z,7.30
2022-10-18T02:11:05.410Z,5.60
2022-10-18T02:13:36.149Z,5.55
2022-10-18T02:16:06.881Z,8.45
2022-10-18T02:18:37.122Z,5.25
2022-10-18T02:21:05.674Z,8.45
2022-10-18T02:23:34.085Z,6.22
2022-10-18T02:26:01.842Z,6.10
2022-10-18T02:28:29.107Z,5.35
2022-10-18T02:31:01.218Z,5.65
2022-10-18T02:33:35.712Z,6.80
2022-10-18T02:36:05.969Z,4.20
2022-10-18T02:38:33.079Z,5.18
2022-10-18T02:41:00.357Z,5.38
2022-10-18T02:43:27.545Z,6.60
2022-10-18T02:45:54.865Z,5.95
2022-10-18T02:48:22.018Z,5.70
2022-10-18T02:50:49.085Z,6.15
2022-10-18T02:53:16.193Z,6.83
2022-10-18T02:55:43.233Z,9.20
2022-10-18T02:58:10.383Z,6.18
2022-10-18T03:00:37.409Z,6.45
2022-10-18T03:03:04.481Z,5.93
2022-10-18T03:05:31.542Z,5.17
2022-10-18T03:07:58.633Z,7.85
2022-10-18T03:10:25.727Z,5.78
2022-10-18T03:12:52.895Z,7.53
2022-10-18T03:15:19.951Z,6.15
2022-10-18T03:17:47.018Z,7.07
2022-10-18T03:20:14.169Z,4.27
2022-10-18T03:22:41.218Z,4.35
2022-10-18T03:25:08.472Z,4.53
2022-10-18T03:27:35.528Z,6.35
2022-10-18T03:30:02.718Z,6.28
2022-10-18T03:32:30.039Z,7.43
2022-10-18T03:34:57.337Z,6.35
2022-10-18T03:37:24.405Z,5.20
2022-10-18T03:39:51.493Z,4.97
2022-10-18T03:42:18.535Z,4.50
2022-10-18T03:44:45.764Z,5.85
2022-10-18T03:47:12.872Z,7.50
2022-10-18T03:49:39.956Z,6.40
2022-10-18T03:52:07.008Z,6.03
2022-10-18T03:54:34.060Z,4.97
2022-10-18T03:57:01.145Z,5.87
2022-10-18T03:59:28.236Z,4.82
2022-10-18T04:01:55.368Z,6.32
2022-10-18T04:04:22.464Z,4.82
2022-10-18T04:06:49.515Z,5.45
2022-10-18T04:09:16.569Z,6.75
2022-10-18T04:11:43.624Z,4.63
2022-10-18T04:14:10.684Z,4.60
2022-10-18T04:16:37.769Z,7.55
2022-10-18T04:19:04.508Z,6.40
2022-10-18T04:21:31.601Z,7.80
2022-10-18T04:23:58.691Z,6.50
2022-10-18T04:26:25.727Z,5.40
2022-10-18T04:28:52.866Z,4.30
2022-10-18T04:31:19.988Z,5.90
2022-10-18T04:33:47.084Z,5.88
2022-10-18T04:36:14.128Z,7.47
2022-10-18T04:38:41.214Z,6.10
2022-10-18T04:41:08.304Z,6.45
2022-10-18T04:43:35.418Z,6.40
2022-10-18T04:46:02.649Z,6.00
2022-10-18T04:48:29.788Z,6.78
2022-10-18T04:50:56.903Z,6.90
2022-10-18T04:53:23.965Z,5.28
2022-10-18T04:55:51.661Z,9.98
2022-10-18T04:58:18.824Z,7.17
2022-10-18T05:00:47.631Z,7.68
2022-10-18T05:03:14.902Z,6.25
2022-10-18T05:06:00.977Z,5.57
2022-10-18T05:08:29.172Z,7.25
2022-10-18T05:10:56.444Z,7.77
2022-10-18T05:13:23.506Z,8.23
2022-10-18T05:15:50.636Z,5.68
2022-10-18T05:18:17.758Z,6.30
2022-10-18T05:20:44.881Z,8.43
2022-10-18T05:23:11.916Z,7.85
2022-10-18T05:25:39.717Z,7.57
2022-10-18T05:28:10.788Z,10.05
2022-10-18T05:30:48.275Z,11.20
2022-10-18T05:33:15.322Z,8.13
2022-10-18T05:35:42.369Z,9.55
2022-10-18T05:38:09.466Z,6.55
2022-10-18T05:40:39.550Z,6.20
2022-10-18T05:43:06.630Z,6.70
2022-10-18T05:45:33.722Z,6.95
2022-10-18T05:48:00.867Z,5.30
2022-10-18T05:50:27.925Z,7.35
2022-10-18T05:53:06.915Z,5.18
2022-10-18T05:55:39.766Z,7.25
2022-10-18T05:58:08.758Z,7.87
2022-10-18T06:00:36.695Z,5.65
2022-10-18T06:03:03.761Z,6.72
2022-10-18T06:05:30.877Z,5.80
2022-10-18T06:07:57.987Z,7.07
2022-10-18T06:10:25.329Z,6.18
2022-10-18T06:12:52.387Z,7.57
2022-10-18T06:15:19.570Z,7.68
2022-10-18T06:17:46.630Z,5.60
2022-10-18T06:20:13.697Z,6.97
2022-10-18T06:22:40.793Z,11.47
2022-10-18T06:25:07.974Z,9.38
2022-10-18T06:27:35.649Z,6.68
2022-10-18T06:30:02.737Z,7.23
2022-10-18T06:32:29.884Z,10.13
2022-10-18T06:34:57.014Z,8.07
2022-10-18T06:37:24.148Z,9.13
2022-10-18T06:39:51.197Z,8.57
2022-10-18T06:42:20.452Z,8.37
2022-10-18T06:44:49.965Z,6.38
2022-10-18T06:47:17.078Z,6.90
2022-10-18T06:49:44.122Z,8.97
2022-10-18T06:52:11.205Z,5.97
2022-10-18T06:54:38.274Z,7.85
2022-10-18T06:57:05.321Z,8.75
2022-10-18T06:59:32.394Z,8.30
2022-10-18T07:01:59.511Z,6.28
2022-10-18T07:04:29.676Z,7.63
2022-10-18T07:06:56.850Z,5.20
2022-10-18T07:09:23.917Z,7.97
2022-10-18T07:11:52.789Z,7.20
2022-10-18T07:14:19.897Z,7.07
2022-10-18T07:16:46.977Z,6.43
2022-10-18T07:19:14.922Z,6.07
2022-10-18T07:21:42.017Z,8.27
2022-10-18T07:24:09.049Z,6.80
2022-10-18T07:26:36.289Z,8.75
2022-10-18T07:29:08.204Z,5.93
2022-10-18T07:31:35.481Z,9.80
2022-10-18T07:34:04.586Z,12.23
2022-10-18T07:36:31.686Z,6.90
2022-10-18T07:38:59.574Z,9.07
2022-10-18T07:41:26.657Z,7.13
2022-10-18T07:43:54.130Z,5.70
2022-10-18T07:46:22.582Z,7.13
2022-10-18T07:48:49.926Z,7.93
2022-10-18T07:51:17.352Z,6.07
2022-10-18T07:53:44.375Z,9.03
2022-10-18T07:56:16.340Z,8.10
2022-10-18T07:58:44.191Z,9.23
2022-10-18T08:01:11.679Z,6.95
2022-10-18T08:03:39.201Z,5.60
2022-10-18T08:06:09.108Z,6.87
2022-10-18T08:08:36.963Z,7.40
2022-10-18T08:11:04.991Z,8.77
2022-10-18T08:13:32.072Z,7.15
2022-10-18T08:16:07.924Z,8.07
2022-10-18T08:18:35.047Z,7.47
2022-10-18T08:21:02.901Z,6.50
2022-10-18T08:23:30.340Z,6.20
2022-10-18T08:25:57.504Z,7.03
2022-10-18T08:28:24.647Z,6.57
2022-10-18T08:30:51.751Z,6.28
2022-10-18T08:33:18.832Z,7.13
2022-10-18T08:35:54.816Z,7.07
2022-10-18T08:38:21.892Z,4.85
2022-10-18T08:40:49.023Z,7.13
2022-10-18T08:43:27.041Z,6.57
2022-10-18T08:45:55.219Z,7.40
2022-10-18T08:48:28.234Z,5.63
2022-10-18T08:50:56.595Z,5.40
2022-10-18T08:53:23.703Z,9.03
2022-10-18T08:55:55.452Z,5.40
2022-10-18T08:58:23.575Z,5.93
2022-10-18T09:01:10.549Z,6.32
2022-10-18T09:03:40.921Z,5.40
2022-10-18T09:06:17.567Z,5.47
2022-10-18T09:09:01.280Z,5.70
2022-10-18T09:11:48.344Z,8.50
2022-10-18T09:14:54.828Z,5.10
2022-10-18T09:17:22.899Z,5.22
2022-10-18T09:19:55.773Z,5.75
2022-10-18T09:22:42.931Z,4.85
2022-10-18T09:25:17.014Z,6.17
2022-10-18T09:27:51.659Z,5.63
2022-10-18T09:30:34.370Z,5.57
2022-10-18T09:33:21.367Z,4.60
2022-10-18T09:35:53.019Z,6.40
2022-10-18T09:38:22.163Z,3.20
2022-10-18T09:40:55.751Z,5.33
2022-10-18T09:43:25.183Z,5.25
2022-10-18T09:45:54.575Z,4.20
2022-10-18T09:48:28.461Z,4.50
2022-10-18T09:50:57.959Z,3.70
2022-10-18T09:53:33.915Z,3.58
2022-10-18T09:56:04.442Z,3.53
2022-10-18T09:58:48.330Z,4.95
2022-10-18T10:01:17.094Z,3.53
2022-10-18T10:03:44.420Z,3.70
2022-10-18T10:06:12.565Z,3.30
2022-10-18T10:08:43.918Z,4.13
2022-10-18T10:11:27.537Z,3.40
2022-10-18T10:13:58.458Z,3.00
2022-10-18T10:16:26.613Z,3.83
2022-10-18T10:18:54.716Z,5.00
2022-10-18T10:21:22.403Z,4.90
2022-10-18T10:23:53.039Z,3.08
2022-10-18T10:26:23.422Z,4.60
2022-10-18T10:28:51.050Z,4.27
2022-10-18T10:31:19.283Z,3.35
2022-10-18T10:33:47.518Z,4.47
2022-10-18T10:36:18.860Z,5.15
2022-10-18T10:38:46.288Z,5.32
2022-10-18T10:41:20.428Z,5.40
2022-10-18T10:43:47.797Z,4.00
2022-10-18T10:46:18.956Z,5.05
2022-10-18T10:48:50.652Z,4.00
2022-10-18T10:51:28.749Z,5.95
2022-10-18T10:54:16.024Z,4.50
2022-10-18T10:56:55.305Z,4.50
2022-10-18T10:59:23.867Z,6.53
2022-10-18T11:02:18.017Z,5.17
2022-10-18T11:04:46.050Z,4.07
2022-10-18T11:07:28.623Z,5.77
2022-10-18T11:09:55.740Z,3.50
2022-10-18T11:12:27.359Z,5.32
2022-10-18T11:14:59.754Z,7.65
2022-10-18T11:17:36.646Z,4.35
2022-10-18T11:20:05.315Z,4.32
2022-10-18T11:22:35.725Z,5.57
2022-10-18T11:25:04.289Z,3.70
2022-10-18T11:27:51.282Z,3.70
2022-10-18T11:30:24.077Z,4.18
2022-10-18T11:32:58.469Z,4.82
2022-10-18T11:35:45.441Z,4.68
2022-10-18T11:38:25.852Z,5.35
2022-10-18T11:40:52.897Z,4.57
2022-10-18T11:43:30.378Z,4.50
2022-10-18T11:46:27.867Z,6.45
2022-10-18T11:49:02.428Z,6.83
2022-10-18T11:52:07.149Z,6.97
2022-10-18T11:57:13.781Z,6.10
2022-10-18T11:59:52.041Z,6.18
2022-10-18T12:02:26.794Z,5.57
2022-10-18T12:05:22.651Z,3.38
2022-10-18T12:07:54.000Z,7.72
2022-10-18T12:10:31.493Z,4.97
2022-10-18T12:13:13.285Z,6.60
2022-10-18T12:15:41.220Z,4.60
2022-10-18T12:18:18.004Z,5.17
2022-10-18T12:20:49.999Z,3.90
2022-10-18T12:23:21.005Z,4.65
2022-10-18T12:25:53.129Z,4.33
2022-10-18T12:28:23.428Z,4.35
2022-10-18T12:30:55.360Z,5.43
2022-10-18T12:33:28.643Z,4.07
2022-10-18T12:36:11.602Z,5.25
2022-10-18T12:38:41.488Z,4.30
2022-10-18T12:41:17.476Z,6.07
2022-10-18T12:43:51.365Z,7.78
2022-10-18T12:46:18.484Z,3.65
2022-10-18T12:48:49.976Z,4.53
2022-10-18T12:51:18.057Z,3.87
2022-10-18T12:53:46.046Z,4.25
2022-10-18T12:56:28.676Z,7.13
2022-10-18T12:59:15.695Z,5.40
2022-10-18T13:02:02.724Z,5.22
2022-10-18T13:04:32.392Z,8.17
2022-10-18T13:07:00.485Z,4.00
2022-10-18T13:09:35.007Z,4.47
2022-10-18T13:12:17.631Z,4.10
2022-10-18T13:15:24.079Z,4.60
2022-10-18T13:17:56.102Z,6.43
2022-10-18T13:20:30.317Z,5.20
2022-10-18T13:23:17.326Z,5.57
2022-10-18T13:26:04.243Z,4.40
2022-10-18T13:28:38.731Z,5.10
2022-10-18T13:31:16.388Z,9.10
2022-10-18T13:33:43.967Z,5.00
2022-10-18T13:36:10.988Z,5.25
2022-10-18T13:38:43.487Z,5.38
2022-10-18T13:41:12.468Z,7.03
2022-10-18T13:43:55.130Z,4.45
2022-10-18T13:46:22.969Z,5.57
2022-10-18T13:48:52.382Z,5.63
2022-10-18T13:51:19.438Z,7.70
2022-10-18T13:53:52.543Z,7.38
2022-10-18T13:56:30.923Z,6.45
2022-10-18T13:59:15.984Z,5.13
2022-10-18T14:02:03.058Z,5.23
2022-10-18T14:04:50.043Z,5.90
2022-10-18T14:07:19.214Z,5.95
2022-10-18T14:09:52.503Z,5.05
2022-10-18T14:12:42.106Z,5.30
2022-10-18T14:15:26.510Z,5.15
2022-10-18T14:17:56.516Z,4.68
2022-10-18T14:20:29.343Z,5.93
2022-10-18T14:23:11.817Z,4.07
2022-10-18T14:25:39.371Z,4.07
2022-10-18T14:28:12.959Z,6.90
2022-10-18T14:30:59.949Z,4.15
2022-10-18T14:33:46.992Z,3.95
2022-10-18T14:36:16.018Z,5.85
2022-10-18T14:38:48.450Z,3.60
2022-10-18T14:41:17.444Z,6.15
2022-10-18T14:43:45.163Z,6.75
2022-10-18T14:46:17.565Z,6.05
2022-10-18T14:48:52.337Z,4.38
2022-10-18T14:51:19.525Z,4.45
2022-10-18T14:53:47.157Z,6.05
2022-10-18T14:56:24.881Z,4.15
2022-10-18T14:58:52.396Z,6.68
2022-10-18T15:01:21.731Z,4.53
2022-10-18T15:03:48.989Z,4.68
2022-10-18T15:06:18.282Z,3.28
2022-10-18T15:08:46.022Z,4.93
2022-10-18T15:11:14.593Z,6.55
2022-10-18T15:13:46.488Z,5.25
2022-10-18T15:16:18.508Z,6.57
2022-10-18T15:18:59.277Z,6.68
2022-10-18T15:21:26.463Z,4.47
2022-10-18T15:23:55.117Z,4.45
2022-10-18T15:26:25.088Z,4.93
2022-10-18T15:28:53.808Z,5.22
2022-10-18T15:31:29.516Z,4.25
2022-10-18T15:34:09.167Z,4.50
2022-10-18T15:36:36.509Z,4.55
2022-10-18T15:39:06.233Z,4.40
2022-10-18T15:41:38.432Z,7.25
2022-10-18T15:44:10.276Z,6.50
2022-10-18T15:46:41.204Z,6.03
2022-10-18T15:49:28.164Z,4.88
2022-10-18T15:52:15.137Z,4.72
2022-10-18T15:54:42.363Z,5.00
2022-10-18T15:57:10.862Z,4.70
2022-10-18T15:59:49.431Z,4.10
2022-10-18T16:02:16.628Z,6.47
2022-10-18T16:04:43.749Z,4.78
2022-10-18T16:07:12.284Z,8.00
2022-10-18T16:09:39.664Z,6.60
2022-10-18T16:12:06.888Z,6.28
2022-10-18T16:14:34.020Z,5.82
2022-10-18T16:17:02.390Z,4.22
2022-10-18T16:19:29.913Z,5.32
2022-10-18T16:21:57.945Z,9.77
2022-10-18T16:24:27.195Z,6.55
2022-10-18T16:26:54.363Z,8.18
2022-10-18T16:29:25.824Z,7.20
2022-10-18T16:31:56.990Z,7.88
2022-10-18T16:34:26.332Z,6.07
2022-10-18T16:36:53.873Z,5.18
2022-10-18T16:39:21.971Z,7.47
2022-10-18T16:41:49.191Z,6.88
2022-10-18T16:44:17.115Z,6.50
2022-10-18T16:46:44.507Z,4.03
2022-10-18T16:51:51.143Z,6.03
2022-10-18T16:54:18.196Z,4.20
2022-10-18T16:56:47.569Z,4.27
2022-10-18T16:59:23.821Z,4.85
2022-10-18T17:01:50.947Z,4.40
2022-10-18T17:04:18.055Z,5.93
2022-10-18T17:06:45.144Z,7.23
2022-10-18T17:09:14.727Z,5.45
2022-10-18T17:11:42.188Z,4.50
2022-10-18T17:14:09.288Z,5.40
2022-10-18T17:16:37.148Z,4.22
2022-10-18T17:19:06.740Z,6.82
2022-10-18T17:21:34.007Z,5.53
2022-10-18T17:24:02.964Z,4.75
2022-10-18T17:26:30.503Z,4.72
2022-10-18T17:29:03.027Z,7.10
2022-10-18T17:31:30.782Z,8.70
2022-10-18T17:33:59.688Z,8.10
2022-10-18T17:36:26.986Z,5.10
2022-10-18T17:38:54.750Z,8.73
2022-10-18T17:41:21.994Z,9.52
2022-10-18T17:43:49.502Z,8.82
2022-10-18T17:46:17.777Z,12.23
2022-10-18T17:48:44.955Z,10.05
2022-10-18T17:51:13.302Z,10.52
2022-10-18T17:53:40.378Z,9.75
2022-10-18T17:56:07.869Z,8.52
2022-10-18T17:58:35.400Z,9.43
2022-10-18T18:01:22.891Z,8.25
2022-10-18T18:03:50.430Z,7.78
2022-10-18T18:06:17.525Z,7.90
2022-10-18T18:08:44.839Z,8.23
2022-10-18T18:11:12.030Z,7.10
2022-10-18T18:13:39.123Z,7.20
2022-10-18T18:16:22.710Z,6.10
2022-10-18T18:18:51.063Z,16.63
2022-10-18T18:21:18.627Z,22.95
2022-10-18T18:23:46.082Z,22.48
2022-10-18T18:26:13.274Z,9.18
2022-10-18T18:28:40.519Z,8.68
2022-10-18T18:31:08.685Z,8.50
2022-10-18T18:33:36.335Z,8.77
2022-10-18T18:36:04.875Z,6.68
2022-10-18T18:38:32.334Z,8.30
2022-10-18T18:41:16.279Z,7.40
2022-10-18T18:43:45.463Z,7.50
2022-10-18T18:46:13.221Z,6.65
2022-10-18T18:48:40.822Z,7.75
2022-10-18T18:51:09.710Z,8.93
2022-10-18T18:53:38.373Z,7.65
2022-10-18T18:56:06.390Z,8.98
2022-10-18T18:58:35.062Z,8.60
2022-10-18T19:01:10.670Z,6.95
2022-10-18T19:03:38.876Z,7.55
2022-10-18T19:06:06.944Z,7.80
2022-10-18T19:08:35.780Z,7.03
2022-10-18T19:11:05.720Z,6.70
2022-10-18T19:13:34.257Z,6.82
2022-10-18T19:16:21.244Z,7.20
2022-10-18T19:18:51.229Z,9.55
2022-10-18T19:21:18.454Z,10.32
2022-10-18T19:23:45.504Z,9.47
2022-10-18T19:26:17.817Z,8.57
2022-10-18T19:28:44.883Z,8.57
2022-10-18T19:31:11.977Z,8.90
2022-10-18T19:33:48.117Z,7.43
2022-10-18T19:36:15.741Z,9.40
2022-10-18T19:38:42.799Z,6.18
2022-10-18T19:41:09.930Z,9.20
2022-10-18T19:43:37.292Z,7.45
2022-10-18T19:46:05.718Z,7.35
2022-10-18T19:48:32.876Z,6.25
2022-10-18T19:51:03.979Z,7.68
2022-10-18T19:53:31.037Z,9.15
2022-10-18T19:55:58.965Z,6.80
2022-10-18T19:58:26.020Z,11.70
2022-10-18T20:00:54.508Z,6.97
2022-10-18T20:03:21.953Z,6.75
2022-10-18T20:05:55.780Z,8.55
2022-10-18T20:08:23.453Z,10.30
2022-10-18T20:10:50.524Z,18.80
2022-10-18T20:13:17.612Z,18.42
2022-10-18T20:15:46.682Z,17.15
2022-10-18T20:18:13.848Z,14.23
2022-10-18T20:20:44.532Z,12.73
2022-10-18T20:23:15.076Z,10.82
2022-10-18T20:25:42.420Z,16.67
2022-10-18T20:28:09.517Z,10.97
2022-10-18T20:30:36.511Z,9.73
2022-10-18T20:33:03.586Z,8.43
2022-10-18T20:35:30.626Z,8.13
2022-10-18T20:37:57.757Z,11.15
2022-10-18T20:40:24.775Z,10.07
2022-10-18T20:42:52.519Z,20.38
2022-10-18T20:45:19.627Z,14.55
2022-10-18T20:47:46.980Z,11.27
2022-10-18T20:50:14.035Z,9.82
2022-10-18T20:52:41.059Z,9.87
2022-10-18T20:55:08.311Z,8.63
2022-10-18T20:57:36.598Z,7.50
2022-10-18T21:00:04.229Z,7.97
2022-10-18T21:02:31.255Z,8.68
2022-10-18T21:04:58.348Z,9.88
2022-10-18T21:07:25.432Z,9.97
2022-10-18T21:09:52.509Z,9.25
2022-10-18T21:12:19.608Z,8.02
2022-10-18T21:14:46.671Z,8.57
2022-10-18T21:17:13.711Z,9.88
2022-10-18T21:19:40.787Z,7.75
2022-10-18T21:22:07.896Z,7.57
2022-10-18T21:24:35.003Z,11.23
2022-10-18T21:27:02.146Z,9.13
2022-10-18T21:29:30.837Z,8.30
2022-10-18T21:31:59.626Z,10.43
2022-10-18T21:34:26.768Z,10.65
2022-10-18T21:36:53.819Z,7.70
2022-10-18T21:41:54.267Z,8.88
2022-10-18T21:44:21.346Z,8.20
2022-10-18T21:46:48.602Z,7.40
2022-10-18T21:49:16.303Z,8.03
2022-10-18T21:51:43.666Z,7.65
2022-10-18T21:54:12.578Z,8.90
2022-10-18T21:56:39.719Z,7.47
2022-10-18T21:59:06.826Z,11.18
2022-10-18T22:01:36.720Z,7.95
2022-10-18T22:04:05.772Z,9.10
2022-10-18T22:09:05.609Z,11.60
2022-10-18T22:11:35.200Z,11.47
2022-10-18T22:14:02.511Z,7.82
2022-10-18T22:16:29.635Z,6.50
2022-10-18T22:18:59.057Z,8.80
2022-10-18T22:21:26.180Z,6.57
2022-10-18T22:23:54.379Z,8.43
2022-10-18T22:26:24.250Z,8.63
2022-10-18T22:28:56.291Z,8.05
2022-10-18T22:31:24.671Z,6.83
2022-10-18T22:33:53.842Z,6.88
2022-10-18T22:36:20.942Z,7.05
2022-10-18T22:38:48.063Z,5.13
2022-10-18T22:41:15.105Z,5.68
2022-10-18T22:43:42.228Z,7.17
2022-10-18T22:46:10.433Z,5.88
2022-10-18T22:48:37.673Z,6.40
2022-10-18T22:51:05.201Z,5.75
2022-10-18T22:53:33.062Z,6.20
2022-10-18T22:56:00.241Z,5.10
2022-10-18T22:58:27.388Z,4.55
2022-10-18T23:01:11.316Z,6.43
2022-10-18T23:03:38.805Z,5.80
2022-10-18T23:06:06.890Z,6.55
2022-10-18T23:08:33.962Z,6.68
2022-10-18T23:11:01.054Z,5.32
2022-10-18T23:13:28.638Z,5.88
2022-10-18T23:16:04.352Z,5.82
2022-10-18T23:18:32.245Z,5.80
2022-10-18T23:21:07.734Z,7.03
2022-10-18T23:23:35.922Z,6.70
2022-10-18T23:26:04.031Z,5.60
2022-10-18T23:28:33.271Z,5.90
2022-10-18T23:31:00.337Z,6.45
2022-10-18T23:33:28.428Z,6.97
2022-10-18T23:35:55.490Z,8.02
2022-10-18T23:38:22.610Z,9.95
2022-10-18T23:40:49.728Z,6.90
2022-10-18T23:43:16.767Z,6.60
2022-10-18T23:48:16.942Z,5.75
2022-10-18T23:50:44.008Z,7.15
2022-10-18T23:53:11.344Z,5.90
2022-10-18T23:55:38.085Z,6.00
2022-10-18T23:58:05.256Z,8.20
